sensor_id;sensor_type;location;lat;lon;timestamp;P1;durP1;ratioP1;P2;durP2;ratioP2
84444;SDS011;74683;48.402;10.596;2024-01-15T00:00:10;25.67;;;7.70;;
84444;SDS011;74683;48.402;10.596;2024-01-15T00:02:37;17.40;;;6.75;;
84444;SDS011;74683;48.402;10.596;2024-01-15T00:05:04;10.00;;;5.18;;
84444;SDS011;74683;48.402;10.596;2024-01-15T00:07:31;16.92;;;7.50;;
84444;SDS011;74683;48.402;10.596;2024-01-15T00:09:57;16.45;;;6.68;;
84444;SDS011;74683;48.402;10.596;2024-01-15T00:12:24;21.60;;;5.60;;
84444;SDS011;74683;48.402;10.596;2024-01-15T00:14:51;21.30;;;7.95;;
84444;SDS011;74683;48.402;10.596;2024-01-15T00:17:17;19.27;;;8.18;;
84444;SDS011;74683;48.402;10.596;2024-01-15T00:19:44;19.38;;;7.75;;
84444;SDS011;74683;48.402;10.596;2024-01-15T00:22:11;21.10;;;7.25;;
84444;SDS011;74683;48.402;10.596;2024-01-15T00:24:37;16.45;;;6.75;;
84444;SDS011;74683;48.402;10.596;2024-01-15T00:27:04;15.88;;;5.32;;
84444;SDS011;74683;48.402;10.596;2024-01-15T00:29:31;15.98;;;7.22;;
84444;SDS011;74683;48.402;10.596;2024-01-15T00:31:57;12.48;;;4.72;;
84444;SDS011;74683;48.402;10.596;2024-01-15T00:34:24;16.70;;;7.15;;
84444;SDS011;74683;48.402;10.596;2024-01-15T00:36:51;17.88;;;6.60;;
84444;SDS011;74683;48.402;10.596;2024-01-15T00:39:17;18.75;;;7.63;;
84444;SDS011;74683;48.402;10.596;2024-01-15T00:41:44;18.08;;;6.18;;
84444;SDS011;74683;48.402;10.596;2024-01-15T00:44:11;16.45;;;5.70;;
84444;SDS011;74683;48.402;10.596;2024-01-15T00:46:42;15.05;;;5.15;;
84444;SDS011;74683;48.402;10.596;2024-01-15T00:49:15;20.92;;;6.18;;
84444;SDS011;74683;48.402;10.596;2024-01-15T00:51:42;17.85;;;7.18;;
84444;SDS011;74683;48.402;10.596;2024-01-15T00:54:09;17.20;;;5.65;;
84444;SDS011;74683;48.402;10.596;2024-01-15T00:56:36;20.80;;;6.53;;
84444;SDS011;74683;48.402;10.596;2024-01-15T00:59:03;11.32;;;3.65;;
84444;SDS011;74683;48.402;10.596;2024-01-15T01:01:29;8.80;;;3.00;;
84444;SDS011;74683;48.402;10.596;2024-01-15T01:03:56;7.70;;;2.97;;
84444;SDS011;74683;48.402;10.596;2024-01-15T01:06:23;13.48;;;3.75;;
84444;SDS011;74683;48.402;10.596;2024-01-15T01:08:50;14.10;;;4.82;;
84444;SDS011;74683;48.402;10.596;2024-01-15T01:11:16;13.75;;;5.43;;
84444;SDS011;74683;48.402;10.596;2024-01-15T01:13:43;8.73;;;4.00;;
84444;SDS011;74683;48.402;10.596;2024-01-15T01:16:10;16.08;;;4.82;;
84444;SDS011;74683;48.402;10.596;2024-01-15T01:18:37;19.38;;;5.28;;
84444;SDS011;74683;48.402;10.596;2024-01-15T01:21:03;13.68;;;4.93;;
84444;SDS011;74683;48.402;10.596;2024-01-15T01:23:30;3.83;;;1.67;;
84444;SDS011;74683;48.402;10.596;2024-01-15T01:25:57;12.07;;;4.47;;
84444;SDS011;74683;48.402;10.596;2024-01-15T01:28:23;12.20;;;4.85;;
84444;SDS011;74683;48.402;10.596;2024-01-15T01:30:50;12.98;;;4.70;;
84444;SDS011;74683;48.402;10.596;2024-01-15T01:33:17;10.57;;;4.30;;
84444;SDS011;74683;48.402;10.596;2024-01-15T01:35:44;12.27;;;5.05;;
84444;SDS011;74683;48.402;10.596;2024-01-15T01:38:11;10.70;;;4.28;;
84444;SDS011;74683;48.402;10.596;2024-01-15T01:40:38;14.98;;;5.43;;
84444;SDS011;74683;48.402;10.596;2024-01-15T01:43:05;9.25;;;3.67;;
84444;SDS011;74683;48.402;10.596;2024-01-15T01:45:31;8.05;;;3.35;;
84444;SDS011;74683;48.402;10.596;2024-01-15T01:47:59;12.48;;;3.88;;
84444;SDS011;74683;48.402;10.596;2024-01-15T01:50:27;14.15;;;4.78;;
84444;SDS011;74683;48.402;10.596;2024-01-15T01:52:58;10.45;;;4.20;;
84444;SDS011;74683;48.402;10.596;2024-01-15T01:55:26;14.93;;;5.15;;
84444;SDS011;74683;48.402;10.596;2024-01-15T01:57:55;16.90;;;5.40;;
84444;SDS011;74683;48.402;10.596;2024-01-15T02:00:22;7.25;;;3.55;;
84444;SDS011;74683;48.402;10.596;2024-01-15T02:02:50;14.05;;;5.07;;
84444;SDS011;74683;48.402;10.596;2024-01-15T02:05:18;15.70;;;4.93;;
84444;SDS011;74683;48.402;10.596;2024-01-15T02:07:46;10.25;;;4.70;;
84444;SDS011;74683;48.402;10.596;2024-01-15T02:10:13;13.93;;;5.32;;
84444;SDS011;74683;48.402;10.596;2024-01-15T02:12:40;11.10;;;4.82;;
84444;SDS011;74683;48.402;10.596;2024-01-15T02:15:10;11.98;;;5.00;;
84444;SDS011;74683;48.402;10.596;2024-01-15T02:17:56;16.20;;;5.00;;
84444;SDS011;74683;48.402;10.596;2024-01-15T02:20:27;11.65;;;4.70;;
84444;SDS011;74683;48.402;10.596;2024-01-15T02:22:53;11.35;;;4.40;;
84444;SDS011;74683;48.402;10.596;2024-01-15T02:25:20;8.70;;;3.30;;
84444;SDS011;74683;48.402;10.596;2024-01-15T02:27:47;14.05;;;4.72;;
84444;SDS011;74683;48.402;10.596;2024-01-15T02:30:14;15.07;;;4.70;;
84444;SDS011;74683;48.402;10.596;2024-01-15T02:32:42;13.23;;;4.93;;
84444;SDS011;74683;48.402;10.596;2024-01-15T02:35:09;4.97;;;2.17;;
84444;SDS011;74683;48.402;10.596;2024-01-15T02:37:35;8.52;;;3.17;;
84444;SDS011;74683;48.402;10.596;2024-01-15T02:40:02;10.70;;;4.60;;
84444;SDS011;74683;48.402;10.596;2024-01-15T02:42:29;11.82;;;3.70;;
84444;SDS011;74683;48.402;10.596;2024-01-15T02:44:56;7.60;;;3.55;;
84444;SDS011;74683;48.402;10.596;2024-01-15T02:47:23;13.55;;;5.65;;
84444;SDS011;74683;48.402;10.596;2024-01-15T02:49:49;14.70;;;4.45;;
84444;SDS011;74683;48.402;10.596;2024-01-15T02:52:16;13.10;;;5.00;;
84444;SDS011;74683;48.402;10.596;2024-01-15T02:54:43;14.60;;;5.45;;
84444;SDS011;74683;48.402;10.596;2024-01-15T02:57:10;12.73;;;5.03;;
84444;SDS011;74683;48.402;10.596;2024-01-15T02:59:37;13.98;;;4.72;;
84444;SDS011;74683;48.402;10.596;2024-01-15T03:02:03;6.35;;;2.13;;
84444;SDS011;74683;48.402;10.596;2024-01-15T03:04:30;11.57;;;5.60;;
84444;SDS011;74683;48.402;10.596;2024-01-15T03:06:57;12.75;;;4.75;;
84444;SDS011;74683;48.402;10.596;2024-01-15T03:09:24;12.10;;;4.28;;
84444;SDS011;74683;48.402;10.596;2024-01-15T03:11:50;9.30;;;3.20;;
84444;SDS011;74683;48.402;10.596;2024-01-15T03:14:17;9.48;;;3.40;;
84444;SDS011;74683;48.402;10.596;2024-01-15T03:16:43;11.38;;;4.13;;
84444;SDS011;74683;48.402;10.596;2024-01-15T03:19:10;9.18;;;4.35;;
84444;SDS011;74683;48.402;10.596;2024-01-15T03:21:37;8.80;;;3.97;;
84444;SDS011;74683;48.402;10.596;2024-01-15T03:24:04;13.30;;;3.90;;
84444;SDS011;74683;48.402;10.596;2024-01-15T03:26:30;15.05;;;4.78;;
84444;SDS011;74683;48.402;10.596;2024-01-15T03:28:57;6.60;;;3.08;;
84444;SDS011;74683;48.402;10.596;2024-01-15T03:31:24;7.30;;;2.85;;
84444;SDS011;74683;48.402;10.596;2024-01-15T03:33:50;7.03;;;3.55;;
84444;SDS011;74683;48.402;10.596;2024-01-15T03:36:17;6.55;;;3.05;;
84444;SDS011;74683;48.402;10.596;2024-01-15T03:38:44;11.30;;;4.75;;
84444;SDS011;74683;48.402;10.596;2024-01-15T03:41:10;4.65;;;2.20;;
84444;SDS011;74683;48.402;10.596;2024-01-15T03:43:37;9.48;;;3.53;;
84444;SDS011;74683;48.402;10.596;2024-01-15T03:46:04;7.80;;;2.30;;
84444;SDS011;74683;48.402;10.596;2024-01-15T03:48:31;7.90;;;2.20;;
84444;SDS011;74683;48.402;10.596;2024-01-15T03:50:58;17.13;;;6.00;;
84444;SDS011;74683;48.402;10.596;2024-01-15T03:53:24;12.30;;;3.22;;
84444;SDS011;74683;48.402;10.596;2024-01-15T03:55:51;11.25;;;4.28;;
84444;SDS011;74683;48.402;10.596;2024-01-15T03:58:18;10.00;;;2.88;;
84444;SDS011;74683;48.402;10.596;2024-01-15T04:00:45;11.48;;;5.20;;
84444;SDS011;74683;48.402;10.596;2024-01-15T04:03:11;11.82;;;3.35;;
84444;SDS011;74683;48.402;10.596;2024-01-15T04:05:38;9.70;;;3.35;;
84444;SDS011;74683;48.402;10.596;2024-01-15T04:08:05;5.80;;;2.47;;
84444;SDS011;74683;48.402;10.596;2024-01-15T04:10:32;12.70;;;3.67;;
84444;SDS011;74683;48.402;10.596;2024-01-15T04:12:59;11.80;;;4.03;;
84444;SDS011;74683;48.402;10.596;2024-01-15T04:15:27;9.02;;;3.95;;
84444;SDS011;74683;48.402;10.596;2024-01-15T04:17:54;7.00;;;1.15;;
84444;SDS011;74683;48.402;10.596;2024-01-15T04:20:21;6.65;;;2.85;;
84444;SDS011;74683;48.402;10.596;2024-01-15T04:22:50;6.40;;;2.53;;
84444;SDS011;74683;48.402;10.596;2024-01-15T04:25:17;9.75;;;3.30;;
84444;SDS011;74683;48.402;10.596;2024-01-15T04:27:44;5.57;;;2.45;;
84444;SDS011;74683;48.402;10.596;2024-01-15T04:30:11;10.23;;;3.35;;
84444;SDS011;74683;48.402;10.596;2024-01-15T04:32:38;6.03;;;2.70;;
84444;SDS011;74683;48.402;10.596;2024-01-15T04:35:04;3.30;;;1.67;;
84444;SDS011;74683;48.402;10.596;2024-01-15T04:37:31;8.07;;;2.88;;
84444;SDS011;74683;48.402;10.596;2024-01-15T04:39:57;3.65;;;1.73;;
84444;SDS011;74683;48.402;10.596;2024-01-15T04:42:24;10.13;;;3.50;;
84444;SDS011;74683;48.402;10.596;2024-01-15T04:44:51;7.80;;;2.88;;
84444;SDS011;74683;48.402;10.596;2024-01-15T04:47:18;6.53;;;2.63;;
84444;SDS011;74683;48.402;10.596;2024-01-15T04:49:44;8.82;;;2.63;;
84444;SDS011;74683;48.402;10.596;2024-01-15T04:52:11;8.30;;;2.95;;
84444;SDS011;74683;48.402;10.596;2024-01-15T04:54:38;9.15;;;3.45;;
84444;SDS011;74683;48.402;10.596;2024-01-15T04:57:05;8.20;;;2.83;;
84444;SDS011;74683;48.402;10.596;2024-01-15T04:59:32;8.73;;;3.58;;
84444;SDS011;74683;48.402;10.596;2024-01-15T05:01:59;8.05;;;2.67;;
84444;SDS011;74683;48.402;10.596;2024-01-15T05:04:25;6.65;;;2.47;;
84444;SDS011;74683;48.402;10.596;2024-01-15T05:06:52;12.73;;;3.92;;
84444;SDS011;74683;48.402;10.596;2024-01-15T05:09:19;7.07;;;2.95;;
84444;SDS011;74683;48.402;10.596;2024-01-15T05:11:46;8.55;;;3.20;;
84444;SDS011;74683;48.402;10.596;2024-01-15T05:14:13;11.55;;;3.25;;
84444;SDS011;74683;48.402;10.596;2024-01-15T05:16:40;9.60;;;2.85;;
84444;SDS011;74683;48.402;10.596;2024-01-15T05:19:12;10.23;;;3.80;;
84444;SDS011;74683;48.402;10.596;2024-01-15T05:21:39;9.88;;;3.20;;
84444;SDS011;74683;48.402;10.596;2024-01-15T05:24:07;7.72;;;3.22;;
84444;SDS011;74683;48.402;10.596;2024-01-15T05:26:34;10.77;;;3.53;;
84444;SDS011;74683;48.402;10.596;2024-01-15T05:29:01;6.07;;;2.13;;
84444;SDS011;74683;48.402;10.596;2024-01-15T05:31:28;5.13;;;2.45;;
84444;SDS011;74683;48.402;10.596;2024-01-15T05:33:55;11.05;;;3.25;;
84444;SDS011;74683;48.402;10.596;2024-01-15T05:36:22;8.48;;;3.05;;
84444;SDS011;74683;48.402;10.596;2024-01-15T05:38:49;9.07;;;3.40;;
84444;SDS011;74683;48.402;10.596;2024-01-15T05:41:16;8.63;;;2.67;;
84444;SDS011;74683;48.402;10.596;2024-01-15T05:43:43;10.32;;;2.08;;
84444;SDS011;74683;48.402;10.596;2024-01-15T05:46:09;5.10;;;2.10;;
84444;SDS011;74683;48.402;10.596;2024-01-15T05:48:36;4.93;;;2.60;;
84444;SDS011;74683;48.402;10.596;2024-01-15T05:51:03;6.78;;;2.65;;
84444;SDS011;74683;48.402;10.596;2024-01-15T05:53:30;8.60;;;2.53;;
84444;SDS011;74683;48.402;10.596;2024-01-15T05:55:56;9.77;;;3.28;;
84444;SDS011;74683;48.402;10.596;2024-01-15T05:58:23;8.07;;;2.78;;
84444;SDS011;74683;48.402;10.596;2024-01-15T06:00:50;10.57;;;3.45;;
84444;SDS011;74683;48.402;10.596;2024-01-15T06:03:17;8.27;;;3.10;;
84444;SDS011;74683;48.402;10.596;2024-01-15T06:05:43;5.25;;;2.28;;
84444;SDS011;74683;48.402;10.596;2024-01-15T06:08:10;14.40;;;4.07;;
84444;SDS011;74683;48.402;10.596;2024-01-15T06:10:37;13.57;;;4.75;;
84444;SDS011;74683;48.402;10.596;2024-01-15T06:13:04;10.75;;;3.17;;
84444;SDS011;74683;48.402;10.596;2024-01-15T06:15:30;10.75;;;4.47;;
84444;SDS011;74683;48.402;10.596;2024-01-15T06:17:57;10.00;;;1.98;;
84444;SDS011;74683;48.402;10.596;2024-01-15T06:20:23;5.78;;;1.67;;
84444;SDS011;74683;48.402;10.596;2024-01-15T06:22:50;4.15;;;1.65;;
84444;SDS011;74683;48.402;10.596;2024-01-15T06:25:17;2.13;;;1.48;;
84444;SDS011;74683;48.402;10.596;2024-01-15T06:27:43;4.28;;;1.50;;
84444;SDS011;74683;48.402;10.596;2024-01-15T06:30:10;5.95;;;1.90;;
84444;SDS011;74683;48.402;10.596;2024-01-15T06:32:38;4.78;;;1.42;;
84444;SDS011;74683;48.402;10.596;2024-01-15T06:35:05;4.20;;;1.90;;
84444;SDS011;74683;48.402;10.596;2024-01-15T06:37:32;4.32;;;1.80;;
84444;SDS011;74683;48.402;10.596;2024-01-15T06:39:59;11.40;;;2.20;;
84444;SDS011;74683;48.402;10.596;2024-01-15T06:42:25;3.88;;;2.05;;
84444;SDS011;74683;48.402;10.596;2024-01-15T06:44:52;9.57;;;2.97;;
84444;SDS011;74683;48.402;10.596;2024-01-15T06:47:19;4.78;;;1.48;;
84444;SDS011;74683;48.402;10.596;2024-01-15T06:49:45;6.78;;;2.47;;
84444;SDS011;74683;48.402;10.596;2024-01-15T06:52:12;7.72;;;2.20;;
84444;SDS011;74683;48.402;10.596;2024-01-15T06:54:39;5.50;;;2.03;;
84444;SDS011;74683;48.402;10.596;2024-01-15T06:57:05;6.00;;;2.92;;
84444;SDS011;74683;48.402;10.596;2024-01-15T06:59:33;8.10;;;3.30;;
84444;SDS011;74683;48.402;10.596;2024-01-15T07:02:01;7.50;;;2.85;;
84444;SDS011;74683;48.402;10.596;2024-01-15T07:04:29;3.97;;;2.10;;
84444;SDS011;74683;48.402;10.596;2024-01-15T07:06:55;3.55;;;1.60;;
84444;SDS011;74683;48.402;10.596;2024-01-15T07:09:22;10.00;;;2.72;;
84444;SDS011;74683;48.402;10.596;2024-01-15T07:11:49;7.43;;;2.78;;
84444;SDS011;74683;48.402;10.596;2024-01-15T07:14:16;5.88;;;2.42;;
84444;SDS011;74683;48.402;10.596;2024-01-15T07:16:43;4.85;;;2.00;;
84444;SDS011;74683;48.402;10.596;2024-01-15T07:19:14;6.90;;;3.00;;
84444;SDS011;74683;48.402;10.596;2024-01-15T07:21:40;6.28;;;2.10;;
84444;SDS011;74683;48.402;10.596;2024-01-15T07:24:09;9.60;;;2.65;;
84444;SDS011;74683;48.402;10.596;2024-01-15T07:26:36;6.60;;;2.40;;
84444;SDS011;74683;48.402;10.596;2024-01-15T07:29:04;4.03;;;2.05;;
84444;SDS011;74683;48.402;10.596;2024-01-15T07:31:30;2.33;;;1.10;;
84444;SDS011;74683;48.402;10.596;2024-01-15T07:33:58;9.45;;;2.55;;
84444;SDS011;74683;48.402;10.596;2024-01-15T07:36:30;2.40;;;0.95;;
84444;SDS011;74683;48.402;10.596;2024-01-15T07:38:57;5.20;;;1.90;;
84444;SDS011;74683;48.402;10.596;2024-01-15T07:41:24;4.90;;;1.42;;
84444;SDS011;74683;48.402;10.596;2024-01-15T07:43:50;2.38;;;0.85;;
84444;SDS011;74683;48.402;10.596;2024-01-15T07:46:17;6.47;;;1.60;;
84444;SDS011;74683;48.402;10.596;2024-01-15T07:48:43;4.03;;;1.92;;
84444;SDS011;74683;48.402;10.596;2024-01-15T07:51:10;6.63;;;2.28;;
84444;SDS011;74683;48.402;10.596;2024-01-15T07:53:37;4.38;;;1.55;;
84444;SDS011;74683;48.402;10.596;2024-01-15T07:56:04;3.88;;;1.95;;
84444;SDS011;74683;48.402;10.596;2024-01-15T07:58:31;4.30;;;1.58;;
84444;SDS011;74683;48.402;10.596;2024-01-15T08:00:57;4.93;;;1.90;;
84444;SDS011;74683;48.402;10.596;2024-01-15T08:03:24;8.00;;;2.65;;
84444;SDS011;74683;48.402;10.596;2024-01-15T08:05:51;8.52;;;1.67;;
84444;SDS011;74683;48.402;10.596;2024-01-15T08:08:20;2.17;;;1.20;;
84444;SDS011;74683;48.402;10.596;2024-01-15T08:10:47;9.70;;;2.28;;
84444;SDS011;74683;48.402;10.596;2024-01-15T08:13:14;5.15;;;2.50;;
84444;SDS011;74683;48.402;10.596;2024-01-15T08:15:41;6.35;;;1.92;;
84444;SDS011;74683;48.402;10.596;2024-01-15T08:18:08;6.25;;;2.42;;
84444;SDS011;74683;48.402;10.596;2024-01-15T08:20:35;11.10;;;4.22;;
84444;SDS011;74683;48.402;10.596;2024-01-15T08:23:06;7.85;;;2.80;;
84444;SDS011;74683;48.402;10.596;2024-01-15T08:25:33;6.30;;;2.95;;
84444;SDS011;74683;48.402;10.596;2024-01-15T08:28:01;5.30;;;2.15;;
84444;SDS011;74683;48.402;10.596;2024-01-15T08:30:27;5.85;;;2.40;;
84444;SDS011;74683;48.402;10.596;2024-01-15T08:32:55;6.72;;;2.60;;
84444;SDS011;74683;48.402;10.596;2024-01-15T08:35:30;6.20;;;1.85;;
84444;SDS011;74683;48.402;10.596;2024-01-15T08:37:56;5.93;;;2.17;;
84444;SDS011;74683;48.402;10.596;2024-01-15T08:40:24;7.22;;;2.17;;
84444;SDS011;74683;48.402;10.596;2024-01-15T08:42:51;3.33;;;1.58;;
84444;SDS011;74683;48.402;10.596;2024-01-15T08:45:17;7.97;;;2.90;;
84444;SDS011;74683;48.402;10.596;2024-01-15T08:47:44;6.78;;;2.95;;
84444;SDS011;74683;48.402;10.596;2024-01-15T08:50:10;4.75;;;1.88;;
84444;SDS011;74683;48.402;10.596;2024-01-15T08:52:37;4.95;;;2.42;;
84444;SDS011;74683;48.402;10.596;2024-01-15T08:55:04;3.75;;;1.85;;
84444;SDS011;74683;48.402;10.596;2024-01-15T08:57:30;4.03;;;2.00;;
84444;SDS011;74683;48.402;10.596;2024-01-15T08:59:57;3.33;;;1.27;;
84444;SDS011;74683;48.402;10.596;2024-01-15T09:02:25;6.88;;;2.67;;
84444;SDS011;74683;48.402;10.596;2024-01-15T09:04:52;3.78;;;1.63;;
84444;SDS011;74683;48.402;10.596;2024-01-15T09:07:18;4.93;;;2.42;;
84444;SDS011;74683;48.402;10.596;2024-01-15T09:09:56;6.93;;;2.60;;
84444;SDS011;74683;48.402;10.596;2024-01-15T09:14:53;7.05;;;2.15;;
84444;SDS011;74683;48.402;10.596;2024-01-15T09:17:21;6.88;;;1.77;;
84444;SDS011;74683;48.402;10.596;2024-01-15T09:19:52;5.25;;;1.98;;
84444;SDS011;74683;48.402;10.596;2024-01-15T09:22:22;2.28;;;1.00;;
84444;SDS011;74683;48.402;10.596;2024-01-15T09:24:50;2.10;;;1.15;;
84444;SDS011;74683;48.402;10.596;2024-01-15T09:27:16;5.22;;;1.92;;
84444;SDS011;74683;48.402;10.596;2024-01-15T09:29:43;1.80;;;1.10;;
84444;SDS011;74683;48.402;10.596;2024-01-15T09:32:12;2.97;;;1.35;;
84444;SDS011;74683;48.402;10.596;2024-01-15T09:34:38;3.05;;;1.33;;
84444;SDS011;74683;48.402;10.596;2024-01-15T09:37:05;10.43;;;2.95;;
84444;SDS011;74683;48.402;10.596;2024-01-15T09:39:32;4.30;;;1.88;;
84444;SDS011;74683;48.402;10.596;2024-01-15T09:41:59;2.58;;;1.05;;
84444;SDS011;74683;48.402;10.596;2024-01-15T09:44:26;3.00;;;1.35;;
84444;SDS011;74683;48.402;10.596;2024-01-15T09:46:55;2.47;;;1.10;;
84444;SDS011;74683;48.402;10.596;2024-01-15T09:49:22;5.57;;;1.23;;
84444;SDS011;74683;48.402;10.596;2024-01-15T09:51:50;1.02;;;0.70;;
84444;SDS011;74683;48.402;10.596;2024-01-15T09:54:31;2.50;;;0.90;;
84444;SDS011;74683;48.402;10.596;2024-01-15T09:57:00;2.15;;;0.90;;
84444;SDS011;74683;48.402;10.596;2024-01-15T09:59:27;2.67;;;0.95;;
84444;SDS011;74683;48.402;10.596;2024-01-15T10:01:54;2.63;;;1.02;;
84444;SDS011;74683;48.402;10.596;2024-01-15T10:04:22;2.08;;;0.90;;
84444;SDS011;74683;48.402;10.596;2024-01-15T10:06:50;4.32;;;1.35;;
84444;SDS011;74683;48.402;10.596;2024-01-15T10:09:18;2.70;;;1.40;;
84444;SDS011;74683;48.402;10.596;2024-01-15T10:11:45;8.70;;;1.27;;
84444;SDS011;74683;48.402;10.596;2024-01-15T10:14:12;4.57;;;0.90;;
84444;SDS011;74683;48.402;10.596;2024-01-15T10:16:39;2.33;;;1.02;;
84444;SDS011;74683;48.402;10.596;2024-01-15T10:19:06;0.65;;;0.40;;
84444;SDS011;74683;48.402;10.596;2024-01-15T10:21:34;2.88;;;1.08;;
84444;SDS011;74683;48.402;10.596;2024-01-15T10:24:02;3.08;;;1.10;;
84444;SDS011;74683;48.402;10.596;2024-01-15T10:26:31;5.47;;;1.70;;
84444;SDS011;74683;48.402;10.596;2024-01-15T10:28:59;4.72;;;1.52;;
84444;SDS011;74683;48.402;10.596;2024-01-15T10:31:26;4.72;;;1.02;;
84444;SDS011;74683;48.402;10.596;2024-01-15T10:34:13;2.08;;;1.23;;
84444;SDS011;74683;48.402;10.596;2024-01-15T10:36:45;2.47;;;1.00;;
84444;SDS011;74683;48.402;10.596;2024-01-15T10:39:16;4.60;;;1.95;;
84444;SDS011;74683;48.402;10.596;2024-01-15T10:41:46;3.50;;;1.45;;
84444;SDS011;74683;48.402;10.596;2024-01-15T10:44:14;2.05;;;1.30;;
84444;SDS011;74683;48.402;10.596;2024-01-15T10:46:44;1.75;;;1.23;;
84444;SDS011;74683;48.402;10.596;2024-01-15T10:49:12;7.28;;;1.95;;
84444;SDS011;74683;48.402;10.596;2024-01-15T10:51:39;2.65;;;1.13;;
84444;SDS011;74683;48.402;10.596;2024-01-15T10:56:37;2.30;;;1.27;;
84444;SDS011;74683;48.402;10.596;2024-01-15T10:59:06;4.32;;;1.98;;
84444;SDS011;74683;48.402;10.596;2024-01-15T11:01:34;7.68;;;2.72;;
84444;SDS011;74683;48.402;10.596;2024-01-15T11:04:01;3.20;;;1.38;;
84444;SDS011;74683;48.402;10.596;2024-01-15T11:06:28;5.65;;;2.35;;
84444;SDS011;74683;48.402;10.596;2024-01-15T11:09:09;4.97;;;1.85;;
84444;SDS011;74683;48.402;10.596;2024-01-15T11:11:39;2.92;;;1.10;;
84444;SDS011;74683;48.402;10.596;2024-01-15T11:14:07;4.72;;;0.93;;
84444;SDS011;74683;48.402;10.596;2024-01-15T11:16:53;2.92;;;0.85;;
84444;SDS011;74683;48.402;10.596;2024-01-15T11:19:21;4.80;;;1.60;;
84444;SDS011;74683;48.402;10.596;2024-01-15T11:21:49;5.95;;;1.38;;
84444;SDS011;74683;48.402;10.596;2024-01-15T11:24:33;5.85;;;1.50;;
84444;SDS011;74683;48.402;10.596;2024-01-15T11:27:03;2.85;;;0.95;;
84444;SDS011;74683;48.402;10.596;2024-01-15T11:29:31;1.73;;;1.15;;
84444;SDS011;74683;48.402;10.596;2024-01-15T11:32:02;4.22;;;1.70;;
84444;SDS011;74683;48.402;10.596;2024-01-15T11:37:26;2.60;;;1.08;;
84444;SDS011;74683;48.402;10.596;2024-01-15T11:39:55;1.42;;;0.70;;
84444;SDS011;74683;48.402;10.596;2024-01-15T11:42:23;2.67;;;0.95;;
84444;SDS011;74683;48.402;10.596;2024-01-15T11:44:50;1.33;;;0.63;;
84444;SDS011;74683;48.402;10.596;2024-01-15T11:47:21;6.60;;;2.60;;
84444;SDS011;74683;48.402;10.596;2024-01-15T11:50:13;2.15;;;1.17;;
84444;SDS011;74683;48.402;10.596;2024-01-15T11:52:41;2.75;;;1.02;;
84444;SDS011;74683;48.402;10.596;2024-01-15T11:55:19;1.23;;;0.50;;
84444;SDS011;74683;48.402;10.596;2024-01-15T11:57:52;2.78;;;1.55;;
84444;SDS011;74683;48.402;10.596;2024-01-15T12:00:21;3.20;;;1.30;;
84444;SDS011;74683;48.402;10.596;2024-01-15T12:02:49;1.52;;;1.00;;
84444;SDS011;74683;48.402;10.596;2024-01-15T12:05:18;4.40;;;1.88;;
84444;SDS011;74683;48.402;10.596;2024-01-15T12:10:15;5.45;;;2.08;;
84444;SDS011;74683;48.402;10.596;2024-01-15T12:13:04;5.78;;;1.55;;
84444;SDS011;74683;48.402;10.596;2024-01-15T12:15:32;5.20;;;2.22;;
84444;SDS011;74683;48.402;10.596;2024-01-15T12:18:00;1.95;;;1.25;;
84444;SDS011;74683;48.402;10.596;2024-01-15T12:20:29;3.72;;;1.27;;
84444;SDS011;74683;48.402;10.596;2024-01-15T12:22:57;3.45;;;1.88;;
84444;SDS011;74683;48.402;10.596;2024-01-15T12:25:30;3.60;;;1.48;;
84444;SDS011;74683;48.402;10.596;2024-01-15T12:27:57;3.92;;;2.00;;
84444;SDS011;74683;48.402;10.596;2024-01-15T12:30:26;3.05;;;1.42;;
84444;SDS011;74683;48.402;10.596;2024-01-15T12:32:54;5.03;;;2.15;;
84444;SDS011;74683;48.402;10.596;2024-01-15T12:35:23;3.75;;;1.63;;
84444;SDS011;74683;48.402;10.596;2024-01-15T12:37:50;3.63;;;1.42;;
84444;SDS011;74683;48.402;10.596;2024-01-15T12:40:21;4.93;;;2.05;;
84444;SDS011;74683;48.402;10.596;2024-01-15T12:42:48;4.28;;;1.40;;
84444;SDS011;74683;48.402;10.596;2024-01-15T12:45:15;4.40;;;1.60;;
84444;SDS011;74683;48.402;10.596;2024-01-15T12:47:42;1.67;;;0.88;;
84444;SDS011;74683;48.402;10.596;2024-01-15T12:50:09;3.97;;;1.13;;
84444;SDS011;74683;48.402;10.596;2024-01-15T12:52:45;4.03;;;1.38;;
84444;SDS011;74683;48.402;10.596;2024-01-15T12:55:13;2.70;;;1.48;;
84444;SDS011;74683;48.402;10.596;2024-01-15T12:57:40;8.02;;;1.75;;
84444;SDS011;74683;48.402;10.596;2024-01-15T13:00:06;3.03;;;1.40;;
84444;SDS011;74683;48.402;10.596;2024-01-15T13:02:38;5.75;;;1.60;;
84444;SDS011;74683;48.402;10.596;2024-01-15T13:05:07;6.30;;;2.03;;
84444;SDS011;74683;48.402;10.596;2024-01-15T13:07:35;3.78;;;1.75;;
84444;SDS011;74683;48.402;10.596;2024-01-15T13:10:02;3.45;;;1.83;;
84444;SDS011;74683;48.402;10.596;2024-01-15T13:12:29;2.15;;;1.08;;
84444;SDS011;74683;48.402;10.596;2024-01-15T13:14:56;6.70;;;3.50;;
84444;SDS011;74683;48.402;10.596;2024-01-15T13:17:24;4.38;;;1.92;;
84444;SDS011;74683;48.402;10.596;2024-01-15T13:19:51;5.25;;;2.10;;
84444;SDS011;74683;48.402;10.596;2024-01-15T13:22:18;4.90;;;1.98;;
84444;SDS011;74683;48.402;10.596;2024-01-15T13:24:45;3.45;;;1.23;;
84444;SDS011;74683;48.402;10.596;2024-01-15T13:27:12;2.95;;;1.60;;
84444;SDS011;74683;48.402;10.596;2024-01-15T13:29:39;5.20;;;2.50;;
84444;SDS011;74683;48.402;10.596;2024-01-15T13:32:06;3.72;;;2.03;;
84444;SDS011;74683;48.402;10.596;2024-01-15T13:34:32;4.28;;;1.85;;
84444;SDS011;74683;48.402;10.596;2024-01-15T13:36:59;4.18;;;1.80;;
84444;SDS011;74683;48.402;10.596;2024-01-15T13:39:26;8.07;;;2.65;;
84444;SDS011;74683;48.402;10.596;2024-01-15T13:41:52;5.10;;;1.55;;
84444;SDS011;74683;48.402;10.596;2024-01-15T13:44:19;11.65;;;3.10;;
84444;SDS011;74683;48.402;10.596;2024-01-15T13:46:47;7.80;;;2.55;;
84444;SDS011;74683;48.402;10.596;2024-01-15T13:49:14;6.35;;;3.05;;
84444;SDS011;74683;48.402;10.596;2024-01-15T13:51:41;6.15;;;2.40;;
84444;SDS011;74683;48.402;10.596;2024-01-15T13:54:08;8.25;;;3.20;;
84444;SDS011;74683;48.402;10.596;2024-01-15T13:56:34;8.25;;;2.88;;
84444;SDS011;74683;48.402;10.596;2024-01-15T13:59:01;8.38;;;3.33;;
84444;SDS011;74683;48.402;10.596;2024-01-15T14:01:30;6.05;;;2.03;;
84444;SDS011;74683;48.402;10.596;2024-01-15T14:03:57;7.53;;;2.75;;
84444;SDS011;74683;48.402;10.596;2024-01-15T14:06:25;8.48;;;3.30;;
84444;SDS011;74683;48.402;10.596;2024-01-15T14:08:52;9.73;;;3.70;;
84444;SDS011;74683;48.402;10.596;2024-01-15T14:11:19;10.10;;;4.28;;
84444;SDS011;74683;48.402;10.596;2024-01-15T14:13:46;14.40;;;5.05;;
84444;SDS011;74683;48.402;10.596;2024-01-15T14:16:14;13.05;;;3.85;;
84444;SDS011;74683;48.402;10.596;2024-01-15T14:18:50;8.23;;;3.25;;
84444;SDS011;74683;48.402;10.596;2024-01-15T14:21:17;8.20;;;3.75;;
84444;SDS011;74683;48.402;10.596;2024-01-15T14:23:45;5.15;;;2.40;;
84444;SDS011;74683;48.402;10.596;2024-01-15T14:26:11;10.05;;;3.47;;
84444;SDS011;74683;48.402;10.596;2024-01-15T14:28:40;13.73;;;3.83;;
84444;SDS011;74683;48.402;10.596;2024-01-15T14:31:07;9.68;;;3.30;;
84444;SDS011;74683;48.402;10.596;2024-01-15T14:33:34;8.70;;;4.00;;
84444;SDS011;74683;48.402;10.596;2024-01-15T14:36:05;8.43;;;2.95;;
84444;SDS011;74683;48.402;10.596;2024-01-15T14:38:32;8.52;;;2.53;;
84444;SDS011;74683;48.402;10.596;2024-01-15T14:40:58;8.05;;;3.08;;
84444;SDS011;74683;48.402;10.596;2024-01-15T14:43:25;6.20;;;2.83;;